sensor_id;sensor_type;location;lat;lon;timestamp;P1;durP1;ratioP1;P2;durP2;ratioP2
38940;SDS011;43236;47.208;7.518;2023-01-10T00:02:38;7.43;;;1.00;;
38940;SDS011;43236;47.208;7.518;2023-01-10T00:05:25;4.40;;;0.80;;
38940;SDS011;43236;47.208;7.518;2023-01-10T00:08:13;7.78;;;0.85;;
38940;SDS011;43236;47.208;7.518;2023-01-10T00:11:02;8.40;;;1.13;;
38940;SDS011;43236;47.208;7.518;2023-01-10T00:14:09;9.60;;;1.40;;
38940;SDS011;43236;47.208;7.518;2023-01-10T00:16:57;8.95;;;1.27;;
38940;SDS011;43236;47.208;7.518;2023-01-10T00:19:45;3.13;;;0.90;;
38940;SDS011;43236;47.208;7.518;2023-01-10T00:22:32;9.50;;;1.52;;
38940;SDS011;43236;47.208;7.518;2023-01-10T00:25:19;10.65;;;1.20;;
38940;SDS011;43236;47.208;7.518;2023-01-10T00:28:09;8.07;;;1.20;;
38940;SDS011;43236;47.208;7.518;2023-01-10T00:31:04;13.68;;;1.15;;
38940;SDS011;43236;47.208;7.518;2023-01-10T00:33:53;5.65;;;1.02;;
38940;SDS011;43236;47.208;7.518;2023-01-10T00:36:40;10.25;;;1.42;;
38940;SDS011;43236;47.208;7.518;2023-01-10T00:39:29;4.88;;;1.25;;
38940;SDS011;43236;47.208;7.518;2023-01-10T00:42:17;8.18;;;1.35;;
38940;SDS011;43236;47.208;7.518;2023-01-10T00:45:24;7.07;;;1.05;;
38940;SDS011;43236;47.208;7.518;2023-01-10T00:48:11;8.93;;;1.08;;
38940;SDS011;43236;47.208;7.518;2023-01-10T00:51:00;5.43;;;1.05;;
38940;SDS011;43236;47.208;7.518;2023-01-10T00:53:47;7.15;;;1.02;;
38940;SDS011;43236;47.208;7.518;2023-01-10T00:56:35;9.20;;;1.40;;
38940;SDS011;43236;47.208;7.518;2023-01-10T00:59:22;7.95;;;1.10;;
38940;SDS011;43236;47.208;7.518;2023-01-10T01:02:09;9.35;;;0.77;;
38940;SDS011;43236;47.208;7.518;2023-01-10T01:04:56;5.53;;;0.88;;
38940;SDS011;43236;47.208;7.518;2023-01-10T01:07:48;11.38;;;1.58;;
38940;SDS011;43236;47.208;7.518;2023-01-10T01:10:38;4.32;;;0.70;;
38940;SDS011;43236;47.208;7.518;2023-01-10T01:13:29;3.90;;;0.50;;
38940;SDS011;43236;47.208;7.518;2023-01-10T01:16:16;4.50;;;0.80;;
38940;SDS011;43236;47.208;7.518;2023-01-10T01:19:03;3.30;;;0.55;;
38940;SDS011;43236;47.208;7.518;2023-01-10T01:21:50;4.18;;;0.80;;
38940;SDS011;43236;47.208;7.518;2023-01-10T01:24:39;5.88;;;0.95;;
38940;SDS011;43236;47.208;7.518;2023-01-10T01:27:27;4.80;;;0.82;;
38940;SDS011;43236;47.208;7.518;2023-01-10T01:30:14;6.78;;;1.20;;
38940;SDS011;43236;47.208;7.518;2023-01-10T01:33:02;4.90;;;0.90;;
38940;SDS011;43236;47.208;7.518;2023-01-10T01:35:49;5.07;;;0.85;;
38940;SDS011;43236;47.208;7.518;2023-01-10T01:38:37;3.95;;;0.82;;
38940;SDS011;43236;47.208;7.518;2023-01-10T01:41:26;7.07;;;1.05;;
38940;SDS011;43236;47.208;7.518;2023-01-10T01:44:32;11.73;;;1.30;;
38940;SDS011;43236;47.208;7.518;2023-01-10T01:47:24;7.30;;;1.10;;
38940;SDS011;43236;47.208;7.518;2023-01-10T01:50:13;12.27;;;1.17;;
38940;SDS011;43236;47.208;7.518;2023-01-10T01:53:02;10.15;;;1.13;;
38940;SDS011;43236;47.208;7.518;2023-01-10T01:55:56;7.07;;;0.93;;
38940;SDS011;43236;47.208;7.518;2023-01-10T01:58:50;6.47;;;1.10;;
38940;SDS011;43236;47.208;7.518;2023-01-10T02:01:41;5.47;;;0.80;;
38940;SDS011;43236;47.208;7.518;2023-01-10T02:04:32;4.43;;;0.82;;
38940;SDS011;43236;47.208;7.518;2023-01-10T02:07:26;3.28;;;0.80;;
38940;SDS011;43236;47.208;7.518;2023-01-10T02:10:18;9.18;;;1.35;;
38940;SDS011;43236;47.208;7.518;2023-01-10T02:13:10;7.13;;;1.08;;
38940;SDS011;43236;47.208;7.518;2023-01-10T02:16:01;3.08;;;0.73;;
38940;SDS011;43236;47.208;7.518;2023-01-10T02:18:48;2.53;;;0.68;;
38940;SDS011;43236;47.208;7.518;2023-01-10T02:21:39;5.47;;;0.80;;
38940;SDS011;43236;47.208;7.518;2023-01-10T02:24:52;2.75;;;0.75;;
38940;SDS011;43236;47.208;7.518;2023-01-10T02:28:21;5.60;;;0.85;;
38940;SDS011;43236;47.208;7.518;2023-01-10T02:31:31;4.78;;;0.60;;
38940;SDS011;43236;47.208;7.518;2023-01-10T02:34:53;7.05;;;0.63;;
38940;SDS011;43236;47.208;7.518;2023-01-10T02:37:51;2.50;;;0.60;;
38940;SDS011;43236;47.208;7.518;2023-01-10T02:40:45;15.63;;;0.88;;
38940;SDS011;43236;47.208;7.518;2023-01-10T02:43:38;12.35;;;0.95;;
38940;SDS011;43236;47.208;7.518;2023-01-10T02:46:30;3.67;;;0.70;;
38940;SDS011;43236;47.208;7.518;2023-01-10T02:49:22;3.35;;;0.45;;
38940;SDS011;43236;47.208;7.518;2023-01-10T02:52:12;5.85;;;0.85;;
38940;SDS011;43236;47.208;7.518;2023-01-10T02:55:05;3.03;;;0.80;;
38940;SDS011;43236;47.208;7.518;2023-01-10T02:57:55;3.92;;;0.65;;
38940;SDS011;43236;47.208;7.518;2023-01-10T03:00:50;4.13;;;0.93;;
38940;SDS011;43236;47.208;7.518;2023-01-10T03:03:44;2.03;;;0.52;;
38940;SDS011;43236;47.208;7.518;2023-01-10T03:06:40;1.75;;;0.45;;
38940;SDS011;43236;47.208;7.518;2023-01-10T03:09:31;7.70;;;0.85;;
38940;SDS011;43236;47.208;7.518;2023-01-10T03:12:24;4.13;;;0.70;;
38940;SDS011;43236;47.208;7.518;2023-01-10T03:15:18;5.80;;;0.90;;
38940;SDS011;43236;47.208;7.518;2023-01-10T03:18:07;6.75;;;0.75;;
38940;SDS011;43236;47.208;7.518;2023-01-10T03:20:59;2.47;;;0.70;;
38940;SDS011;43236;47.208;7.518;2023-01-10T03:23:51;4.07;;;0.75;;
38940;SDS011;43236;47.208;7.518;2023-01-10T03:26:46;3.38;;;0.73;;
38940;SDS011;43236;47.208;7.518;2023-01-10T03:29:41;4.35;;;0.73;;
38940;SDS011;43236;47.208;7.518;2023-01-10T03:32:31;4.63;;;0.80;;
38940;SDS011;43236;47.208;7.518;2023-01-10T03:35:20;9.75;;;1.63;;
38940;SDS011;43236;47.208;7.518;2023-01-10T03:38:15;8.40;;;1.25;;
38940;SDS011;43236;47.208;7.518;2023-01-10T03:41:14;11.65;;;1.15;;
38940;SDS011;43236;47.208;7.518;2023-01-10T03:44:11;8.30;;;1.10;;
38940;SDS011;43236;47.208;7.518;2023-01-10T03:47:21;3.90;;;0.80;;
38940;SDS011;43236;47.208;7.518;2023-01-10T03:50:15;8.07;;;1.17;;
38940;SDS011;43236;47.208;7.518;2023-01-10T03:53:05;4.90;;;0.90;;
38940;SDS011;43236;47.208;7.518;2023-01-10T03:55:52;6.68;;;1.30;;
38940;SDS011;43236;47.208;7.518;2023-01-10T03:58:43;6.05;;;0.98;;
38940;SDS011;43236;47.208;7.518;2023-01-10T04:01:30;6.10;;;0.93;;
38940;SDS011;43236;47.208;7.518;2023-01-10T04:04:18;6.57;;;0.88;;
38940;SDS011;43236;47.208;7.518;2023-01-10T04:07:05;7.40;;;1.27;;
38940;SDS011;43236;47.208;7.518;2023-01-10T04:09:52;5.43;;;0.90;;
38940;SDS011;43236;47.208;7.518;2023-01-10T04:12:39;7.47;;;1.00;;
38940;SDS011;43236;47.208;7.518;2023-01-10T04:15:28;3.30;;;0.90;;
38940;SDS011;43236;47.208;7.518;2023-01-10T04:18:15;3.63;;;0.75;;
38940;SDS011;43236;47.208;7.518;2023-01-10T04:21:06;8.80;;;1.25;;
38940;SDS011;43236;47.208;7.518;2023-01-10T04:23:53;5.05;;;0.70;;
38940;SDS011;43236;47.208;7.518;2023-01-10T04:26:42;2.10;;;0.45;;
38940;SDS011;43236;47.208;7.518;2023-01-10T04:29:29;3.80;;;0.80;;
38940;SDS011;43236;47.208;7.518;2023-01-10T04:32:18;6.93;;;0.75;;
38940;SDS011;43236;47.208;7.518;2023-01-10T04:35:05;4.72;;;0.73;;
38940;SDS011;43236;47.208;7.518;2023-01-10T04:37:53;1.70;;;0.60;;
38940;SDS011;43236;47.208;7.518;2023-01-10T04:40:43;5.57;;;0.90;;
38940;SDS011;43236;47.208;7.518;2023-01-10T04:43:30;7.43;;;0.70;;
38940;SDS011;43236;47.208;7.518;2023-01-10T04:46:17;5.93;;;0.93;;
38940;SDS011;43236;47.208;7.518;2023-01-10T04:49:07;5.28;;;0.85;;
38940;SDS011;43236;47.208;7.518;2023-01-10T04:51:55;3.63;;;0.80;;
38940;SDS011;43236;47.208;7.518;2023-01-10T04:54:42;4.55;;;0.82;;
38940;SDS011;43236;47.208;7.518;2023-01-10T04:57:29;4.07;;;0.70;;
38940;SDS011;43236;47.208;7.518;2023-01-10T05:00:16;5.88;;;1.00;;
38940;SDS011;43236;47.208;7.518;2023-01-10T05:03:04;6.75;;;1.48;;
38940;SDS011;43236;47.208;7.518;2023-01-10T05:05:53;4.78;;;0.70;;
38940;SDS011;43236;47.208;7.518;2023-01-10T05:08:40;3.33;;;0.82;;
38940;SDS011;43236;47.208;7.518;2023-01-10T05:11:28;3.00;;;0.82;;
38940;SDS011;43236;47.208;7.518;2023-01-10T05:14:15;5.40;;;0.80;;
38940;SDS011;43236;47.208;7.518;2023-01-10T05:17:02;4.97;;;1.02;;
38940;SDS011;43236;47.208;7.518;2023-01-10T05:19:49;7.55;;;1.13;;
38940;SDS011;43236;47.208;7.518;2023-01-10T05:22:39;3.28;;;0.80;;
38940;SDS011;43236;47.208;7.518;2023-01-10T05:25:27;5.22;;;0.75;;
38940;SDS011;43236;47.208;7.518;2023-01-10T05:28:16;7.07;;;0.90;;
38940;SDS011;43236;47.208;7.518;2023-01-10T05:31:04;2.38;;;0.55;;
38940;SDS011;43236;47.208;7.518;2023-01-10T05:33:51;4.53;;;0.70;;
38940;SDS011;43236;47.208;7.518;2023-01-10T05:36:38;3.92;;;0.90;;
38940;SDS011;43236;47.208;7.518;2023-01-10T05:39:27;3.25;;;1.00;;
38940;SDS011;43236;47.208;7.518;2023-01-10T05:42:14;9.88;;;1.17;;
38940;SDS011;43236;47.208;7.518;2023-01-10T05:45:01;4.43;;;1.00;;
38940;SDS011;43236;47.208;7.518;2023-01-10T05:47:48;3.55;;;0.70;;
38940;SDS011;43236;47.208;7.518;2023-01-10T05:50:37;4.60;;;0.95;;
38940;SDS011;43236;47.208;7.518;2023-01-10T05:53:25;5.50;;;0.90;;
38940;SDS011;43236;47.208;7.518;2023-01-10T05:56:13;4.28;;;0.93;;
38940;SDS011;43236;47.208;7.518;2023-01-10T05:59:00;2.97;;;0.70;;
38940;SDS011;43236;47.208;7.518;2023-01-10T06:01:47;4.50;;;1.08;;
38940;SDS011;43236;47.208;7.518;2023-01-10T06:04:34;5.03;;;0.85;;
38940;SDS011;43236;47.208;7.518;2023-01-10T06:07:21;5.43;;;0.90;;
38940;SDS011;43236;47.208;7.518;2023-01-10T06:10:09;3.50;;;0.98;;
38940;SDS011;43236;47.208;7.518;2023-01-10T06:12:57;2.30;;;0.70;;
38940;SDS011;43236;47.208;7.518;2023-01-10T06:15:44;3.22;;;0.80;;
38940;SDS011;43236;47.208;7.518;2023-01-10T06:18:31;4.80;;;0.85;;
38940;SDS011;43236;47.208;7.518;2023-01-10T06:21:19;4.65;;;1.05;;
38940;SDS011;43236;47.208;7.518;2023-01-10T06:24:06;4.63;;;1.08;;
38940;SDS011;43236;47.208;7.518;2023-01-10T06:26:53;3.88;;;1.00;;
38940;SDS011;43236;47.208;7.518;2023-01-10T06:29:42;6.25;;;1.00;;
38940;SDS011;43236;47.208;7.518;2023-01-10T06:32:29;6.22;;;1.17;;
38940;SDS011;43236;47.208;7.518;2023-01-10T06:35:19;5.05;;;1.00;;
38940;SDS011;43236;47.208;7.518;2023-01-10T06:38:07;4.60;;;0.95;;
38940;SDS011;43236;47.208;7.518;2023-01-10T06:40:54;3.72;;;0.75;;
38940;SDS011;43236;47.208;7.518;2023-01-10T06:43:41;3.88;;;1.23;;
38940;SDS011;43236;47.208;7.518;2023-01-10T06:46:31;6.60;;;1.02;;
38940;SDS011;43236;47.208;7.518;2023-01-10T06:49:18;4.30;;;0.88;;
38940;SDS011;43236;47.208;7.518;2023-01-10T06:52:04;2.88;;;0.98;;
38940;SDS011;43236;47.208;7.518;2023-01-10T06:54:51;5.32;;;0.90;;
38940;SDS011;43236;47.208;7.518;2023-01-10T06:57:39;3.22;;;0.90;;
38940;SDS011;43236;47.208;7.518;2023-01-10T07:00:26;6.30;;;2.13;;
38940;SDS011;43236;47.208;7.518;2023-01-10T07:03:16;4.07;;;0.85;;
38940;SDS011;43236;47.208;7.518;2023-01-10T07:06:03;5.93;;;0.98;;
38940;SDS011;43236;47.208;7.518;2023-01-10T07:08:54;3.42;;;0.80;;
38940;SDS011;43236;47.208;7.518;2023-01-10T07:11:41;4.25;;;0.93;;
38940;SDS011;43236;47.208;7.518;2023-01-10T07:14:28;3.30;;;1.45;;
38940;SDS011;43236;47.208;7.518;2023-01-10T07:17:15;4.18;;;1.25;;
38940;SDS011;43236;47.208;7.518;2023-01-10T07:20:04;6.20;;;1.00;;
38940;SDS011;43236;47.208;7.518;2023-01-10T07:22:52;9.05;;;1.73;;
38940;SDS011;43236;47.208;7.518;2023-01-10T07:25:40;3.60;;;0.82;;
38940;SDS011;43236;47.208;7.518;2023-01-10T07:28:27;8.70;;;1.20;;
38940;SDS011;43236;47.208;7.518;2023-01-10T07:31:14;6.20;;;1.20;;
38940;SDS011;43236;47.208;7.518;2023-01-10T07:34:01;6.20;;;1.67;;
38940;SDS011;43236;47.208;7.518;2023-01-10T07:36:49;6.53;;;1.30;;
38940;SDS011;43236;47.208;7.518;2023-01-10T07:39:36;1.80;;;0.60;;
38940;SDS011;43236;47.208;7.518;2023-01-10T07:42:23;9.10;;;1.00;;
38940;SDS011;43236;47.208;7.518;2023-01-10T07:45:10;8.88;;;1.73;;
38940;SDS011;43236;47.208;7.518;2023-01-10T07:47:58;11.38;;;2.17;;
38940;SDS011;43236;47.208;7.518;2023-01-10T07:50:46;5.03;;;1.60;;
38940;SDS011;43236;47.208;7.518;2023-01-10T07:53:34;4.40;;;1.23;;
38940;SDS011;43236;47.208;7.518;2023-01-10T07:56:22;8.15;;;1.52;;
38940;SDS011;43236;47.208;7.518;2023-01-10T07:59:09;3.97;;;1.00;;
38940;SDS011;43236;47.208;7.518;2023-01-10T08:01:56;10.80;;;1.10;;
38940;SDS011;43236;47.208;7.518;2023-01-10T08:04:44;8.80;;;1.38;;
38940;SDS011;43236;47.208;7.518;2023-01-10T08:07:31;6.55;;;1.23;;
38940;SDS011;43236;47.208;7.518;2023-01-10T08:10:19;5.82;;;1.50;;
38940;SDS011;43236;47.208;7.518;2023-01-10T08:13:07;5.15;;;1.45;;
38940;SDS011;43236;47.208;7.518;2023-01-10T08:15:54;3.72;;;1.00;;
38940;SDS011;43236;47.208;7.518;2023-01-10T08:18:41;4.05;;;0.82;;
38940;SDS011;43236;47.208;7.518;2023-01-10T08:21:28;4.68;;;0.90;;
38940;SDS011;43236;47.208;7.518;2023-01-10T08:24:16;5.68;;;1.10;;
38940;SDS011;43236;47.208;7.518;2023-01-10T08:27:04;3.85;;;1.10;;
38940;SDS011;43236;47.208;7.518;2023-01-10T08:29:51;3.67;;;1.00;;
38940;SDS011;43236;47.208;7.518;2023-01-10T08:32:38;4.45;;;1.13;;
38940;SDS011;43236;47.208;7.518;2023-01-10T08:35:25;7.68;;;1.60;;
38940;SDS011;43236;47.208;7.518;2023-01-10T08:38:12;9.93;;;1.52;;
38940;SDS011;43236;47.208;7.518;2023-01-10T08:40:59;6.40;;;2.10;;
38940;SDS011;43236;47.208;7.518;2023-01-10T08:43:49;5.05;;;2.45;;
38940;SDS011;43236;47.208;7.518;2023-01-10T08:46:36;8.32;;;1.88;;
38940;SDS011;43236;47.208;7.518;2023-01-10T08:49:23;8.90;;;1.58;;
38940;SDS011;43236;47.208;7.518;2023-01-10T08:52:10;4.53;;;1.58;;
38940;SDS011;43236;47.208;7.518;2023-01-10T08:54:58;4.88;;;1.70;;
38940;SDS011;43236;47.208;7.518;2023-01-10T08:57:45;5.53;;;1.58;;
38940;SDS011;43236;47.208;7.518;2023-01-10T09:00:33;4.60;;;1.60;;
38940;SDS011;43236;47.208;7.518;2023-01-10T09:03:20;5.03;;;1.75;;
38940;SDS011;43236;47.208;7.518;2023-01-10T09:06:07;9.35;;;2.55;;
38940;SDS011;43236;47.208;7.518;2023-01-10T09:08:55;8.30;;;1.80;;
38940;SDS011;43236;47.208;7.518;2023-01-10T09:11:42;6.97;;;1.77;;
38940;SDS011;43236;47.208;7.518;2023-01-10T09:14:29;7.47;;;1.70;;
38940;SDS011;43236;47.208;7.518;2023-01-10T09:17:17;5.57;;;1.50;;
38940;SDS011;43236;47.208;7.518;2023-01-10T09:20:05;5.28;;;1.50;;
38940;SDS011;43236;47.208;7.518;2023-01-10T09:22:54;8.23;;;1.58;;
38940;SDS011;43236;47.208;7.518;2023-01-10T09:25:42;8.23;;;1.67;;
38940;SDS011;43236;47.208;7.518;2023-01-10T09:28:30;4.97;;;1.35;;
38940;SDS011;43236;47.208;7.518;2023-01-10T09:31:17;3.80;;;1.10;;
38940;SDS011;43236;47.208;7.518;2023-01-10T09:34:05;4.32;;;1.20;;
38940;SDS011;43236;47.208;7.518;2023-01-10T09:36:52;3.78;;;1.02;;
38940;SDS011;43236;47.208;7.518;2023-01-10T09:39:40;6.32;;;1.20;;
38940;SDS011;43236;47.208;7.518;2023-01-10T09:42:30;5.13;;;1.10;;
38940;SDS011;43236;47.208;7.518;2023-01-10T09:45:27;9.30;;;1.13;;
38940;SDS011;43236;47.208;7.518;2023-01-10T09:48:25;10.75;;;1.20;;
38940;SDS011;43236;47.208;7.518;2023-01-10T09:54:14;5.07;;;1.33;;
38940;SDS011;43236;47.208;7.518;2023-01-10T09:57:03;8.40;;;1.33;;
38940;SDS011;43236;47.208;7.518;2023-01-10T09:59:51;4.30;;;1.40;;
38940;SDS011;43236;47.208;7.518;2023-01-10T10:02:40;5.03;;;1.10;;
38940;SDS011;43236;47.208;7.518;2023-01-10T10:05:30;8.98;;;1.50;;
38940;SDS011;43236;47.208;7.518;2023-01-10T10:08:19;8.13;;;1.60;;
38940;SDS011;43236;47.208;7.518;2023-01-10T10:11:09;5.93;;;1.80;;
38940;SDS011;43236;47.208;7.518;2023-01-10T10:14:12;5.32;;;1.50;;
38940;SDS011;43236;47.208;7.518;2023-01-10T10:17:15;9.20;;;1.60;;
38940;SDS011;43236;47.208;7.518;2023-01-10T10:20:15;7.00;;;1.40;;
38940;SDS011;43236;47.208;7.518;2023-01-10T10:23:15;4.50;;;1.10;;
38940;SDS011;43236;47.208;7.518;2023-01-10T10:26:15;4.47;;;1.30;;
38940;SDS011;43236;47.208;7.518;2023-01-10T10:32:39;4.78;;;1.23;;
38940;SDS011;43236;47.208;7.518;2023-01-10T10:35:52;9.82;;;1.35;;
38940;SDS011;43236;47.208;7.518;2023-01-10T10:38:44;7.00;;;1.35;;
38940;SDS011;43236;47.208;7.518;2023-01-10T10:41:33;6.70;;;1.10;;
38940;SDS011;43236;47.208;7.518;2023-01-10T10:44:26;9.18;;;1.20;;
38940;SDS011;43236;47.208;7.518;2023-01-10T10:47:22;6.85;;;1.55;;
38940;SDS011;43236;47.208;7.518;2023-01-10T10:50:16;6.88;;;0.98;;
38940;SDS011;43236;47.208;7.518;2023-01-10T10:53:07;3.70;;;1.13;;
38940;SDS011;43236;47.208;7.518;2023-01-10T10:55:57;6.85;;;1.30;;
38940;SDS011;43236;47.208;7.518;2023-01-10T10:58:47;9.65;;;1.40;;
38940;SDS011;43236;47.208;7.518;2023-01-10T11:01:38;9.18;;;1.55;;
38940;SDS011;43236;47.208;7.518;2023-01-10T11:04:27;5.63;;;0.80;;
38940;SDS011;43236;47.208;7.518;2023-01-10T11:07:16;6.97;;;1.25;;
38940;SDS011;43236;47.208;7.518;2023-01-10T11:10:09;4.45;;;1.00;;
38940;SDS011;43236;47.208;7.518;2023-01-10T11:13:12;6.25;;;1.25;;
38940;SDS011;43236;47.208;7.518;2023-01-10T11:16:06;7.03;;;1.08;;
38940;SDS011;43236;47.208;7.518;2023-01-10T11:22:00;5.32;;;1.00;;
38940;SDS011;43236;47.208;7.518;2023-01-10T11:24:52;6.78;;;1.00;;
38940;SDS011;43236;47.208;7.518;2023-01-10T11:27:43;7.90;;;0.80;;
38940;SDS011;43236;47.208;7.518;2023-01-10T11:30:33;6.90;;;0.70;;
38940;SDS011;43236;47.208;7.518;2023-01-10T11:33:21;4.97;;;0.82;;
38940;SDS011;43236;47.208;7.518;2023-01-10T11:36:12;10.07;;;1.17;;
38940;SDS011;43236;47.208;7.518;2023-01-10T11:39:13;3.67;;;1.00;;
38940;SDS011;43236;47.208;7.518;2023-01-10T11:42:23;5.68;;;1.20;;
38940;SDS011;43236;47.208;7.518;2023-01-10T11:45:21;7.55;;;1.15;;
38940;SDS011;43236;47.208;7.518;2023-01-10T11:48:17;7.85;;;1.02;;
38940;SDS011;43236;47.208;7.518;2023-01-10T11:51:14;2.05;;;0.80;;
38940;SDS011;43236;47.208;7.518;2023-01-10T11:54:04;8.07;;;1.02;;
38940;SDS011;43236;47.208;7.518;2023-01-10T11:56:56;3.83;;;0.90;;
38940;SDS011;43236;47.208;7.518;2023-01-10T11:59:49;2.10;;;0.63;;
38940;SDS011;43236;47.208;7.518;2023-01-10T12:02:39;8.32;;;1.38;;
38940;SDS011;43236;47.208;7.518;2023-01-10T12:05:29;5.47;;;0.85;;
38940;SDS011;43236;47.208;7.518;2023-01-10T12:08:22;2.47;;;0.70;;
38940;SDS011;43236;47.208;7.518;2023-01-10T12:11:21;8.80;;;1.25;;
38940;SDS011;43236;47.208;7.518;2023-01-10T12:14:17;4.68;;;0.60;;
38940;SDS011;43236;47.208;7.518;2023-01-10T12:17:05;6.13;;;1.13;;
38940;SDS011;43236;47.208;7.518;2023-01-10T12:19:57;4.80;;;0.80;;
38940;SDS011;43236;47.208;7.518;2023-01-10T12:22:47;5.32;;;1.10;;
38940;SDS011;43236;47.208;7.518;2023-01-10T12:25:39;5.38;;;1.13;;
38940;SDS011;43236;47.208;7.518;2023-01-10T12:28:27;2.65;;;0.63;;
38940;SDS011;43236;47.208;7.518;2023-01-10T12:31:16;4.47;;;0.75;;
38940;SDS011;43236;47.208;7.518;2023-01-10T12:34:06;6.50;;;1.15;;
38940;SDS011;43236;47.208;7.518;2023-01-10T12:37:00;3.38;;;0.80;;
38940;SDS011;43236;47.208;7.518;2023-01-10T12:39:58;3.28;;;0.70;;
38940;SDS011;43236;47.208;7.518;2023-01-10T12:42:51;7.72;;;1.13;;
38940;SDS011;43236;47.208;7.518;2023-01-10T12:46:02;5.70;;;0.77;;
38940;SDS011;43236;47.208;7.518;2023-01-10T12:48:57;6.45;;;0.90;;
38940;SDS011;43236;47.208;7.518;2023-01-10T12:51:52;3.47;;;0.80;;
38940;SDS011;43236;47.208;7.518;2023-01-10T12:54:45;7.18;;;0.95;;
38940;SDS011;43236;47.208;7.518;2023-01-10T12:57:35;4.55;;;1.00;;
38940;SDS011;43236;47.208;7.518;2023-01-10T13:00:26;6.80;;;0.90;;
38940;SDS011;43236;47.208;7.518;2023-01-10T13:03:18;11.88;;;1.10;;
38940;SDS011;43236;47.208;7.518;2023-01-10T13:06:06;4.47;;;0.80;;
38940;SDS011;43236;47.208;7.518;2023-01-10T13:09:02;6.32;;;1.05;;
38940;SDS011;43236;47.208;7.518;2023-01-10T13:11:54;6.88;;;1.00;;
38940;SDS011;43236;47.208;7.518;2023-01-10T13:14:47;3.72;;;0.93;;
38940;SDS011;43236;47.208;7.518;2023-01-10T13:17:41;6.65;;;0.95;;
38940;SDS011;43236;47.208;7.518;2023-01-10T13:23:28;8.60;;;1.02;;
38940;SDS011;43236;47.208;7.518;2023-01-10T13:26:17;8.18;;;0.88;;
38940;SDS011;43236;47.208;7.518;2023-01-10T13:29:05;4.78;;;0.90;;
38940;SDS011;43236;47.208;7.518;2023-01-10T13:31:59;8.13;;;1.30;;
38940;SDS011;43236;47.208;7.518;2023-01-10T13:34:47;10.52;;;1.17;;
38940;SDS011;43236;47.208;7.518;2023-01-10T13:37:35;9.25;;;1.10;;
38940;SDS011;43236;47.208;7.518;2023-01-10T13:40:26;3.72;;;0.90;;
38940;SDS011;43236;47.208;7.518;2023-01-10T13:46:46;4.50;;;0.80;;
38940;SDS011;43236;47.208;7.518;2023-01-10T13:49:39;10.93;;;1.00;;
38940;SDS011;43236;47.208;7.518;2023-01-10T13:52:29;4.45;;;0.85;;
38940;SDS011;43236;47.208;7.518;2023-01-10T13:55:28;3.17;;;0.73;;
38940;SDS011;43236;47.208;7.518;2023-01-10T14:01:43;4.15;;;0.82;;
38940;SDS011;43236;47.208;7.518;2023-01-10T14:04:54;4.45;;;0.60;;
38940;SDS011;43236;47.208;7.518;2023-01-10T14:07:43;5.25;;;0.95;;
38940;SDS011;43236;47.208;7.518;2023-01-10T14:10:33;5.53;;;1.17;;
38940;SDS011;43236;47.208;7.518;2023-01-10T14:13:20;1.75;;;0.50;;
38940;SDS011;43236;47.208;7.518;2023-01-10T14:19:20;5.13;;;1.30;;
38940;SDS011;43236;47.208;7.518;2023-01-10T14:22:24;4.07;;;1.08;;
38940;SDS011;43236;47.208;7.518;2023-01-10T14:25:15;7.60;;;0.85;;
38940;SDS011;43236;47.208;7.518;2023-01-10T14:28:13;7.07;;;0.80;;
38940;SDS011;43236;47.208;7.518;2023-01-10T14:31:06;4.43;;;0.75;;
38940;SDS011;43236;47.208;7.518;2023-01-10T14:33:55;8.95;;;1.00;;
38940;SDS011;43236;47.208;7.518;2023-01-10T14:36:45;7.28;;;0.90;;
38940;SDS011;43236;47.208;7.518;2023-01-10T14:39:39;4.60;;;0.90;;
38940;SDS011;43236;47.208;7.518;2023-01-10T14:42:28;4.88;;;0.75;;
38940;SDS011;43236;47.208;7.518;2023-01-10T14:45:18;5.00;;;0.80;;
38940;SDS011;43236;47.208;7.518;2023-01-10T14:48:25;2.55;;;0.50;;
38940;SDS011;43236;47.208;7.518;2023-01-10T14:51:15;4.47;;;0.70;;
38940;SDS011;43236;47.208;7.518;2023-01-10T14:54:10;4.28;;;1.05;;
38940;SDS011;43236;47.208;7.518;2023-01-10T14:57:00;9.20;;;1.30;;
38940;SDS011;43236;47.208;7.518;2023-01-10T14:59:47;8.93;;;1.02;;
38940;SDS011;43236;47.208;7.518;2023-01-10T15:02:35;6.72;;;0.80;;
38940;SDS011;43236;47.208;7.518;2023-01-10T15:05:23;6.45;;;0.85;;
38940;SDS011;43236;47.208;7.518;2023-01-10T15:08:15;6.63;;;1.05;;
38940;SDS011;43236;47.208;7.518;2023-01-10T15:11:06;4.65;;;1.13;;
38940;SDS011;43236;47.208;7.518;2023-01-10T15:13:58;5.82;;;1.13;;
38940;SDS011;43236;47.208;7.518;2023-01-10T15:16:48;3.75;;;0.80;;
38940;SDS011;43236;47.208;7.518;2023-01-10T15:19:39;4.80;;;1.10;;
38940;SDS011;43236;47.208;7.518;2023-01-10T15:22:27;9.10;;;1.10;;
38940;SDS011;43236;47.208;7.518;2023-01-10T15:25:27;11.07;;;1.30;;
38940;SDS011;43236;47.208;7.518;2023-01-10T15:28:17;8.50;;;1.23;;
38940;SDS011;43236;47.208;7.518;2023-01-10T15:31:06;8.10;;;1.10;;
38940;SDS011;43236;47.208;7.518;2023-01-10T15:33:55;2.20;;;0.77;;
38940;SDS011;43236;47.208;7.518;2023-01-10T15:36:44;5.20;;;1.20;;
38940;SDS011;43236;47.208;7.518;2023-01-10T15:39:34;4.75;;;0.93;;
38940;SDS011;43236;47.208;7.518;2023-01-10T15:42:24;9.30;;;1.35;;
38940;SDS011;43236;47.208;7.518;2023-01-10T15:45:16;14.80;;;3.00;;
38940;SDS011;43236;47.208;7.518;2023-01-10T15:51:01;8.25;;;1.02;;
38940;SDS011;43236;47.208;7.518;2023-01-10T15:53:55;5.75;;;1.13;;
38940;SDS011;43236;47.208;7.518;2023-01-10T15:56:48;12.70;;;1.45;;
38940;SDS011;43236;47.208;7.518;2023-01-10T15:59:37;7.53;;;1.65;;
38940;SDS011;43236;47.208;7.518;2023-01-10T16:02:29;6.07;;;2.30;;
38940;SDS011;43236;47.208;7.518;2023-01-10T16:05:17;18.10;;;4.78;;
38940;SDS011;43236;47.208;7.518;2023-01-10T16:08:07;15.32;;;5.10;;
38940;SDS011;43236;47.208;7.518;2023-01-10T16:10:56;10.38;;;2.65;;
38940;SDS011;43236;47.208;7.518;2023-01-10T16:13:45;9.38;;;1.85;;
38940;SDS011;43236;47.208;7.518;2023-01-10T16:16:31;9.52;;;1.40;;
38940;SDS011;43236;47.208;7.518;2023-01-10T16:19:18;8.10;;;1.77;;
38940;SDS011;43236;47.208;7.518;2023-01-10T16:22:05;6.10;;;1.42;;
38940;SDS011;43236;47.208;7.518;2023-01-10T16:24:53;7.53;;;1.38;;
38940;SDS011;43236;47.208;7.518;2023-01-10T16:27:41;12.43;;;1.45;;
38940;SDS011;43236;47.208;7.518;2023-01-10T16:30:29;8.00;;;1.48;;
38940;SDS011;43236;47.208;7.518;2023-01-10T16:33:18;7.57;;;1.35;;
38940;SDS011;43236;47.208;7.518;2023-01-10T16:36:12;8.35;;;1.67;;
38940;SDS011;43236;47.208;7.518;2023-01-10T16:39:03;5.43;;;1.42;;
38940;SDS011;43236;47.208;7.518;2023-01-10T16:41:55;5.22;;;1.27;;
38940;SDS011;43236;47.208;7.518;2023-01-10T16:44:59;5.53;;;1.40;;
38940;SDS011;43236;47.208;7.518;2023-01-10T16:47:46;12.88;;;2.72;;
38940;SDS011;43236;47.208;7.518;2023-01-10T16:50:33;8.85;;;1.70;;
38940;SDS011;43236;47.208;7.518;2023-01-10T16:53:20;9.35;;;1.88;;
38940;SDS011;43236;47.208;7.518;2023-01-10T16:56:07;7.68;;;1.83;;
38940;SDS011;43236;47.208;7.518;2023-01-10T16:58:59;9.55;;;1.90;;
38940;SDS011;43236;47.208;7.518;2023-01-10T17:01:48;13.57;;;4.68;;
38940;SDS011;43236;47.208;7.518;2023-01-10T17:04:37;10.48;;;4.03;;
38940;SDS011;43236;47.208;7.518;2023-01-10T17:07:24;8.95;;;2.55;;
38940;SDS011;43236;47.208;7.518;2023-01-10T17:10:11;5.85;;;1.38;;
38940;SDS011;43236;47.208;7.518;2023-01-10T17:12:58;12.40;;;2.70;;
38940;SDS011;43236;47.208;7.518;2023-01-10T17:15:48;10.93;;;2.78;;
38940;SDS011;43236;47.208;7.518;2023-01-10T17:18:35;8.32;;;3.05;;
38940;SDS011;43236;47.208;7.518;2023-01-10T17:21:23;24.10;;;8.88;;
38940;SDS011;43236;47.208;7.518;2023-01-10T17:24:11;44.67;;;15.98;;
38940;SDS011;43236;47.208;7.518;2023-01-10T17:26:58;17.52;;;5.90;;
38940;SDS011;43236;47.208;7.518;2023-01-10T17:29:45;25.98;;;7.68;;
38940;SDS011;43236;47.208;7.518;2023-01-10T17:32:33;9.55;;;3.05;;